sensor_id;sensor_type;location;lat;lon;timestamp;temperature;humidity
45323;DHT22;31382;50.200;8.674;2022-09-14T00:02:09;17.60;99.90
45323;DHT22;31382;50.200;8.674;2022-09-14T00:07:11;17.50;99.90
45323;DHT22;31382;50.200;8.674;2022-09-14T00:12:13;17.50;99.90
45323;DHT22;31382;50.200;8.674;2022-09-14T00:17:15;17.50;99.90
45323;DHT22;31382;50.200;8.674;2022-09-14T00:22:16;17.50;99.90
45323;DHT22;31382;50.200;8.674;2022-09-14T00:27:18;17.50;99.90
45323;DHT22;31382;50.200;8.674;2022-09-14T00:32:20;17.50;99.90
45323;DHT22;31382;50.200;8.674;2022-09-14T00:37:21;17.50;99.90
45323;DHT22;31382;50.200;8.674;2022-09-14T00:42:23;17.50;99.90
45323;DHT22;31382;50.200;8.674;2022-09-14T00:47:25;17.50;99.90
45323;DHT22;31382;50.200;8.674;2022-09-14T00:52:30;17.50;99.90
45323;DHT22;31382;50.200;8.674;2022-09-14T00:57:48;17.50;99.90
45323;DHT22;31382;50.200;8.674;2022-09-14T01:02:51;17.50;99.90
45323;DHT22;31382;50.200;8.674;2022-09-14T01:08:15;17.50;99.90
45323;DHT22;31382;50.200;8.674;2022-09-14T01:18:41;17.50;99.90
45323;DHT22;31382;50.200;8.674;2022-09-14T01:34:42;17.60;99.90
45323;DHT22;31382;50.200;8.674;2022-09-14T01:39:51;17.60;99.90
45323;DHT22;31382;50.200;8.674;2022-09-14T01:45:00;17.60;99.90
45323;DHT22;31382;50.200;8.674;2022-09-14T01:50:57;17.50;99.90
45323;DHT22;31382;50.200;8.674;2022-09-14T01:55:58;17.60;99.90
45323;DHT22;31382;50.200;8.674;2022-09-14T02:01:02;17.50;99.90
45323;DHT22;31382;50.200;8.674;2022-09-14T02:06:10;17.50;99.90
45323;DHT22;31382;50.200;8.674;2022-09-14T02:11:13;17.50;99.90
45323;DHT22;31382;50.200;8.674;2022-09-14T02:16:15;17.50;99.90
45323;DHT22;31382;50.200;8.674;2022-09-14T02:21:20;17.50;99.90
45323;DHT22;31382;50.200;8.674;2022-09-14T02:26:23;17.50;99.90
45323;DHT22;31382;50.200;8.674;2022-09-14T02:31:43;17.60;99.90
45323;DHT22;31382;50.200;8.674;2022-09-14T02:42:27;17.60;99.90
45323;DHT22;31382;50.200;8.674;2022-09-14T02:48:01;17.60;99.90
45323;DHT22;31382;50.200;8.674;2022-09-14T02:53:26;17.50;99.90
45323;DHT22;31382;50.200;8.674;2022-09-14T02:58:40;17.50;99.90
45323;DHT22;31382;50.200;8.674;2022-09-14T03:03:42;17.50;99.90
45323;DHT22;31382;50.200;8.674;2022-09-14T03:08:44;17.50;99.90
45323;DHT22;31382;50.200;8.674;2022-09-14T03:13:46;17.50;99.90
45323;DHT22;31382;50.200;8.674;2022-09-14T03:18:47;17.50;99.90
45323;DHT22;31382;50.200;8.674;2022-09-14T03:23:51;17.50;99.90
45323;DHT22;31382;50.200;8.674;2022-09-14T03:28:55;17.50;99.90
45323;DHT22;31382;50.200;8.674;2022-09-14T03:33:58;17.50;99.90
45323;DHT22;31382;50.200;8.674;2022-09-14T03:39:00;17.50;99.90
45323;DHT22;31382;50.200;8.674;2022-09-14T03:44:02;17.50;99.90
45323;DHT22;31382;50.200;8.674;2022-09-14T03:49:04;17.50;99.90
45323;DHT22;31382;50.200;8.674;2022-09-14T03:54:06;17.50;99.90
45323;DHT22;31382;50.200;8.674;2022-09-14T03:59:08;17.50;99.90
45323;DHT22;31382;50.200;8.674;2022-09-14T04:04:10;17.50;99.90
45323;DHT22;31382;50.200;8.674;2022-09-14T04:09:12;17.50;99.90
45323;DHT22;31382;50.200;8.674;2022-09-14T04:14:13;17.50;99.90
45323;DHT22;31382;50.200;8.674;2022-09-14T04:19:16;17.50;99.90
45323;DHT22;31382;50.200;8.674;2022-09-14T04:24:17;17.50;99.90
45323;DHT22;31382;50.200;8.674;2022-09-14T04:29:19;17.50;99.90
45323;DHT22;31382;50.200;8.674;2022-09-14T04:34:21;17.50;99.90
45323;DHT22;31382;50.200;8.674;2022-09-14T04:39:23;17.50;99.90
45323;DHT22;31382;50.200;8.674;2022-09-14T04:44:25;17.50;99.90
45323;DHT22;31382;50.200;8.674;2022-09-14T04:49:27;17.50;99.90
45323;DHT22;31382;50.200;8.674;2022-09-14T04:54:29;17.50;99.90
45323;DHT22;31382;50.200;8.674;2022-09-14T04:59:31;17.50;99.90
45323;DHT22;31382;50.200;8.674;2022-09-14T05:04:32;17.50;99.90
45323;DHT22;31382;50.200;8.674;2022-09-14T05:09:34;17.50;99.90
45323;DHT22;31382;50.200;8.674;2022-09-14T05:14:36;17.50;99.90
45323;DHT22;31382;50.200;8.674;2022-09-14T05:19:37;17.50;99.90
45323;DHT22;31382;50.200;8.674;2022-09-14T05:24:39;17.50;99.90
45323;DHT22;31382;50.200;8.674;2022-09-14T05:29:40;17.50;99.90
45323;DHT22;31382;50.200;8.674;2022-09-14T05:34:42;17.50;99.90
45323;DHT22;31382;50.200;8.674;2022-09-14T05:39:44;17.50;99.90
45323;DHT22;31382;50.200;8.674;2022-09-14T05:44:45;17.50;99.90
45323;DHT22;31382;50.200;8.674;2022-09-14T05:49:47;17.50;99.90
45323;DHT22;31382;50.200;8.674;2022-09-14T05:54:49;17.50;99.90
45323;DHT22;31382;50.200;8.674;2022-09-14T05:59:51;17.50;99.90
45323;DHT22;31382;50.200;8.674;2022-09-14T06:04:52;17.50;99.90
45323;DHT22;31382;50.200;8.674;2022-09-14T06:09:54;17.50;99.90
45323;DHT22;31382;50.200;8.674;2022-09-14T06:14:56;17.50;99.90
45323;DHT22;31382;50.200;8.674;2022-09-14T06:19:57;17.50;99.90
45323;DHT22;31382;50.200;8.674;2022-09-14T06:25:05;17.50;99.90
45323;DHT22;31382;50.200;8.674;2022-09-14T06:30:07;17.60;99.90
45323;DHT22;31382;50.200;8.674;2022-09-14T06:35:09;17.60;99.90
45323;DHT22;31382;50.200;8.674;2022-09-14T06:40:13;17.50;99.90
45323;DHT22;31382;50.200;8.674;2022-09-14T06:45:14;17.60;99.90
45323;DHT22;31382;50.200;8.674;2022-09-14T06:50:16;17.60;99.90
45323;DHT22;31382;50.200;8.674;2022-09-14T06:55:18;17.60;99.90
45323;DHT22;31382;50.200;8.674;2022-09-14T07:00:19;17.60;99.90
45323;DHT22;31382;50.200;8.674;2022-09-14T07:05:22;17.70;99.90
45323;DHT22;31382;50.200;8.674;2022-09-14T07:10:23;17.70;99.90
45323;DHT22;31382;50.200;8.674;2022-09-14T07:15:28;17.60;99.90
45323;DHT22;31382;50.200;8.674;2022-09-14T07:20:30;17.60;99.90
45323;DHT22;31382;50.200;8.674;2022-09-14T07:25:31;17.60;99.90
45323;DHT22;31382;50.200;8.674;2022-09-14T07:30:37;17.60;99.90
45323;DHT22;31382;50.200;8.674;2022-09-14T07:35:39;17.60;99.90
45323;DHT22;31382;50.200;8.674;2022-09-14T07:40:40;17.80;99.90
45323;DHT22;31382;50.200;8.674;2022-09-14T07:45:42;17.80;99.90
45323;DHT22;31382;50.200;8.674;2022-09-14T07:50:44;18.00;99.90
45323;DHT22;31382;50.200;8.674;2022-09-14T07:55:46;18.10;99.90
45323;DHT22;31382;50.200;8.674;2022-09-14T08:00:47;18.20;99.90
45323;DHT22;31382;50.200;8.674;2022-09-14T08:05:49;18.30;99.90
45323;DHT22;31382;50.200;8.674;2022-09-14T08:11:05;18.20;99.90
45323;DHT22;31382;50.200;8.674;2022-09-14T08:16:08;18.00;99.90
45323;DHT22;31382;50.200;8.674;2022-09-14T08:21:15;18.00;99.90
45323;DHT22;31382;50.200;8.674;2022-09-14T08:26:22;18.10;99.90
45323;DHT22;31382;50.200;8.674;2022-09-14T08:31:25;18.00;99.90
45323;DHT22;31382;50.200;8.674;2022-09-14T08:36:30;18.10;99.90
45323;DHT22;31382;50.200;8.674;2022-09-14T08:41:46;18.20;99.90
45323;DHT22;31382;50.200;8.674;2022-09-14T08:46:53;18.10;99.90
45323;DHT22;31382;50.200;8.674;2022-09-14T08:51:56;18.20;99.90
45323;DHT22;31382;50.200;8.674;2022-09-14T08:57:21;18.20;99.90
45323;DHT22;31382;50.200;8.674;2022-09-14T09:07:40;18.30;99.90
45323;DHT22;31382;50.200;8.674;2022-09-14T09:12:51;18.40;99.90
45323;DHT22;31382;50.200;8.674;2022-09-14T09:18:18;18.50;99.90
45323;DHT22;31382;50.200;8.674;2022-09-14T09:23:25;18.60;99.90
45323;DHT22;31382;50.200;8.674;2022-09-14T09:28:28;18.60;99.90
45323;DHT22;31382;50.200;8.674;2022-09-14T09:33:31;18.50;99.90
45323;DHT22;31382;50.200;8.674;2022-09-14T09:38:33;18.50;99.90
45323;DHT22;31382;50.200;8.674;2022-09-14T09:48:58;19.00;99.90
45323;DHT22;31382;50.200;8.674;2022-09-14T10:04:29;19.10;99.90
45323;DHT22;31382;50.200;8.674;2022-09-14T10:09:31;19.00;99.90
45323;DHT22;31382;50.200;8.674;2022-09-14T10:14:34;19.00;99.90
45323;DHT22;31382;50.200;8.674;2022-09-14T10:19:36;18.90;99.90
45323;DHT22;31382;50.200;8.674;2022-09-14T10:24:38;18.90;99.90
45323;DHT22;31382;50.200;8.674;2022-09-14T10:29:43;18.90;99.90
45323;DHT22;31382;50.200;8.674;2022-09-14T10:34:46;19.00;99.90
45323;DHT22;31382;50.200;8.674;2022-09-14T10:40:04;19.00;99.90
45323;DHT22;31382;50.200;8.674;2022-09-14T10:56:04;19.10;99.90
45323;DHT22;31382;50.200;8.674;2022-09-14T11:06:40;19.20;99.90
45323;DHT22;31382;50.200;8.674;2022-09-14T11:27:24;19.40;99.90
45323;DHT22;31382;50.200;8.674;2022-09-14T11:32:31;19.40;99.90
45323;DHT22;31382;50.200;8.674;2022-09-14T11:37:40;19.50;99.90
45323;DHT22;31382;50.200;8.674;2022-09-14T11:48:09;19.30;99.90
45323;DHT22;31382;50.200;8.674;2022-09-14T11:53:32;19.40;99.90
45323;DHT22;31382;50.200;8.674;2022-09-14T11:58:34;19.50;99.90
45323;DHT22;31382;50.200;8.674;2022-09-14T12:03:50;19.70;99.90
45323;DHT22;31382;50.200;8.674;2022-09-14T12:08:53;19.70;99.90
45323;DHT22;31382;50.200;8.674;2022-09-14T12:19:27;19.80;99.90
45323;DHT22;31382;50.200;8.674;2022-09-14T12:24:29;19.90;99.90
45323;DHT22;31382;50.200;8.674;2022-09-14T12:29:32;20.00;99.90
45323;DHT22;31382;50.200;8.674;2022-09-14T12:34:34;20.10;99.90
45323;DHT22;31382;50.200;8.674;2022-09-14T12:39:36;20.30;99.90
45323;DHT22;31382;50.200;8.674;2022-09-14T12:44:40;20.40;99.90
45323;DHT22;31382;50.200;8.674;2022-09-14T12:49:42;20.50;99.90
45323;DHT22;31382;50.200;8.674;2022-09-14T12:54:56;20.60;99.90
45323;DHT22;31382;50.200;8.674;2022-09-14T13:00:12;20.70;99.90
45323;DHT22;31382;50.200;8.674;2022-09-14T13:05:18;20.60;99.90
45323;DHT22;31382;50.200;8.674;2022-09-14T13:10:30;20.70;99.90
45323;DHT22;31382;50.200;8.674;2022-09-14T13:15:35;20.60;99.90
45323;DHT22;31382;50.200;8.674;2022-09-14T13:20:37;20.40;99.90
45323;DHT22;31382;50.200;8.674;2022-09-14T13:25:40;20.20;99.90
45323;DHT22;31382;50.200;8.674;2022-09-14T13:30:52;20.10;99.90
45323;DHT22;31382;50.200;8.674;2022-09-14T13:36:00;20.10;99.90
45323;DHT22;31382;50.200;8.674;2022-09-14T13:41:06;20.00;99.90
45323;DHT22;31382;50.200;8.674;2022-09-14T13:46:09;19.90;99.90
45323;DHT22;31382;50.200;8.674;2022-09-14T13:51:12;19.90;99.90
45323;DHT22;31382;50.200;8.674;2022-09-14T14:01:24;19.70;99.90
45323;DHT22;31382;50.200;8.674;2022-09-14T14:06:27;19.70;99.90
45323;DHT22;31382;50.200;8.674;2022-09-14T14:11:41;19.60;99.90
45323;DHT22;31382;50.200;8.674;2022-09-14T14:17:10;19.60;99.90
45323;DHT22;31382;50.200;8.674;2022-09-14T14:22:25;19.50;99.90
45323;DHT22;31382;50.200;8.674;2022-09-14T14:27:33;19.50;99.90
45323;DHT22;31382;50.200;8.674;2022-09-14T14:32:35;19.50;99.90
45323;DHT22;31382;50.200;8.674;2022-09-14T14:37:37;19.30;99.90
45323;DHT22;31382;50.200;8.674;2022-09-14T14:42:39;19.30;99.90
45323;DHT22;31382;50.200;8.674;2022-09-14T14:47:41;19.20;99.90
45323;DHT22;31382;50.200;8.674;2022-09-14T14:52:43;19.20;99.90
45323;DHT22;31382;50.200;8.674;2022-09-14T14:57:45;19.00;99.90
45323;DHT22;31382;50.200;8.674;2022-09-14T15:02:47;19.00;99.90
45323;DHT22;31382;50.200;8.674;2022-09-14T15:07:49;19.10;99.90
45323;DHT22;31382;50.200;8.674;2022-09-14T15:12:52;19.00;99.90
45323;DHT22;31382;50.200;8.674;2022-09-14T15:17:55;19.00;99.90
45323;DHT22;31382;50.200;8.674;2022-09-14T15:22:57;19.10;99.90
45323;DHT22;31382;50.200;8.674;2022-09-14T15:27:58;19.20;99.90
45323;DHT22;31382;50.200;8.674;2022-09-14T15:33:00;19.10;99.90
45323;DHT22;31382;50.200;8.674;2022-09-14T15:38:02;19.20;99.90
45323;DHT22;31382;50.200;8.674;2022-09-14T15:43:04;19.30;99.90
45323;DHT22;31382;50.200;8.674;2022-09-14T15:48:06;19.50;99.90
45323;DHT22;31382;50.200;8.674;2022-09-14T15:53:08;19.60;99.90
45323;DHT22;31382;50.200;8.674;2022-09-14T15:58:10;19.60;99.90
45323;DHT22;31382;50.200;8.674;2022-09-14T16:03:12;19.70;99.90
45323;DHT22;31382;50.200;8.674;2022-09-14T16:08:14;19.70;99.90
45323;DHT22;31382;50.200;8.674;2022-09-14T16:13:15;19.70;99.90
45323;DHT22;31382;50.200;8.674;2022-09-14T16:18:17;19.70;99.90
45323;DHT22;31382;50.200;8.674;2022-09-14T16:23:19;19.60;99.90
45323;DHT22;31382;50.200;8.674;2022-09-14T16:28:20;19.60;99.90
45323;DHT22;31382;50.200;8.674;2022-09-14T16:33:22;19.50;99.90
45323;DHT22;31382;50.200;8.674;2022-09-14T16:38:24;19.40;99.90
45323;DHT22;31382;50.200;8.674;2022-09-14T16:43:26;19.40;99.90
45323;DHT22;31382;50.200;8.674;2022-09-14T16:48:28;19.40;99.90
45323;DHT22;31382;50.200;8.674;2022-09-14T16:53:33;19.40;99.90
45323;DHT22;31382;50.200;8.674;2022-09-14T16:58:37;19.30;99.90
45323;DHT22;31382;50.200;8.674;2022-09-14T17:03:39;19.30;99.90
45323;DHT22;31382;50.200;8.674;2022-09-14T17:08:43;19.30;99.90
45323;DHT22;31382;50.200;8.674;2022-09-14T17:13:45;19.30;99.90
45323;DHT22;31382;50.200;8.674;2022-09-14T17:18:50;19.30;99.90
45323;DHT22;31382;50.200;8.674;2022-09-14T17:23:51;19.30;99.90
45323;DHT22;31382;50.200;8.674;2022-09-14T17:28:56;19.20;99.90
45323;DHT22;31382;50.200;8.674;2022-09-14T17:33:59;19.00;99.90
45323;DHT22;31382;50.200;8.674;2022-09-14T17:39:03;18.90;99.90
45323;DHT22;31382;50.200;8.674;2022-09-14T17:44:12;18.70;99.90
45323;DHT22;31382;50.200;8.674;2022-09-14T17:49:14;18.60;99.90
45323;DHT22;31382;50.200;8.674;2022-09-14T17:54:17;18.60;99.90
45323;DHT22;31382;50.200;8.674;2022-09-14T17:59:19;18.60;99.90
45323;DHT22;31382;50.200;8.674;2022-09-14T18:04:21;18.40;99.90
45323;DHT22;31382;50.200;8.674;2022-09-14T18:09:23;18.50;99.90
45323;DHT22;31382;50.200;8.674;2022-09-14T18:14:25;18.50;99.90
45323;DHT22;31382;50.200;8.674;2022-09-14T18:19:27;18.40;99.90
45323;DHT22;31382;50.200;8.674;2022-09-14T18:24:28;18.30;99.90
45323;DHT22;31382;50.200;8.674;2022-09-14T18:29:30;18.20;99.90
45323;DHT22;31382;50.200;8.674;2022-09-14T18:34:34;18.30;99.90
45323;DHT22;31382;50.200;8.674;2022-09-14T18:39:35;18.20;99.90
45323;DHT22;31382;50.200;8.674;2022-09-14T18:44:37;18.30;99.90
45323;DHT22;31382;50.200;8.674;2022-09-14T18:49:38;18.30;99.90
45323;DHT22;31382;50.200;8.674;2022-09-14T18:54:40;18.30;99.90
45323;DHT22;31382;50.200;8.674;2022-09-14T18:59:43;18.20;99.90
45323;DHT22;31382;50.200;8.674;2022-09-14T19:04:44;18.20;99.90
45323;DHT22;31382;50.200;8.674;2022-09-14T19:09:47;18.10;99.90
45323;DHT22;31382;50.200;8.674;2022-09-14T19:14:49;18.20;99.90
45323;DHT22;31382;50.200;8.674;2022-09-14T19:19:51;18.20;99.90
45323;DHT22;31382;50.200;8.674;2022-09-14T19:24:53;18.20;99.90
45323;DHT22;31382;50.200;8.674;2022-09-14T19:29:55;18.20;99.90
45323;DHT22;31382;50.200;8.674;2022-09-14T19:34:56;18.20;99.90
45323;DHT22;31382;50.200;8.674;2022-09-14T19:39:58;18.30;99.90
45323;DHT22;31382;50.200;8.674;2022-09-14T19:45:00;18.20;99.90
45323;DHT22;31382;50.200;8.674;2022-09-14T19:50:02;18.30;99.90
45323;DHT22;31382;50.200;8.674;2022-09-14T19:55:04;18.30;99.90
45323;DHT22;31382;50.200;8.674;2022-09-14T20:00:07;18.20;99.90
45323;DHT22;31382;50.200;8.674;2022-09-14T20:05:15;18.10;99.90
45323;DHT22;31382;50.200;8.674;2022-09-14T20:10:17;18.10;99.90
45323;DHT22;31382;50.200;8.674;2022-09-14T20:15:19;18.00;99.90
45323;DHT22;31382;50.200;8.674;2022-09-14T20:20:22;18.10;99.90
45323;DHT22;31382;50.200;8.674;2022-09-14T20:25:24;18.10;99.90
45323;DHT22;31382;50.200;8.674;2022-09-14T20:30:26;18.10;99.90
45323;DHT22;31382;50.200;8.674;2022-09-14T20:35:28;18.10;99.90
45323;DHT22;31382;50.200;8.674;2022-09-14T20:40:30;18.10;99.90
45323;DHT22;31382;50.200;8.674;2022-09-14T20:45:32;18.10;99.90
45323;DHT22;31382;50.200;8.674;2022-09-14T20:50:34;18.10;99.90
45323;DHT22;31382;50.200;8.674;2022-09-14T20:55:36;18.10;99.90
45323;DHT22;31382;50.200;8.674;2022-09-14T21:00:37;18.10;99.90
45323;DHT22;31382;50.200;8.674;2022-09-14T21:05:39;18.10;99.90
45323;DHT22;31382;50.200;8.674;2022-09-14T21:10:41;18.00;99.90
45323;DHT22;31382;50.200;8.674;2022-09-14T21:15:42;17.70;99.90
45323;DHT22;31382;50.200;8.674;2022-09-14T21:20:44;17.60;99.90
45323;DHT22;31382;50.200;8.674;2022-09-14T21:25:53;17.50;99.90
45323;DHT22;31382;50.200;8.674;2022-09-14T21:31:07;17.40;99.90
45323;DHT22;31382;50.200;8.674;2022-09-14T21:36:15;17.40;99.90
45323;DHT22;31382;50.200;8.674;2022-09-14T21:41:18;17.40;99.90
45323;DHT22;31382;50.200;8.674;2022-09-14T21:46:20;17.40;99.90
45323;DHT22;31382;50.200;8.674;2022-09-14T21:51:25;17.40;99.90
45323;DHT22;31382;50.200;8.674;2022-09-14T21:56:29;17.40;99.90
45323;DHT22;31382;50.200;8.674;2022-09-14T22:01:31;17.30;99.90
45323;DHT22;31382;50.200;8.674;2022-09-14T22:06:33;17.30;99.90
45323;DHT22;31382;50.200;8.674;2022-09-14T22:11:36;17.20;99.90
45323;DHT22;31382;50.200;8.674;2022-09-14T22:16:39;17.20;99.90
45323;DHT22;31382;50.200;8.674;2022-09-14T22:21:42;17.20;99.90
45323;DHT22;31382;50.200;8.674;2022-09-14T22:26:44;17.20;99.90
45323;DHT22;31382;50.200;8.674;2022-09-14T22:31:46;17.10;99.90
45323;DHT22;31382;50.200;8.674;2022-09-14T22:36:48;17.10;99.90
45323;DHT22;31382;50.200;8.674;2022-09-14T22:41:50;17.10;99.90
45323;DHT22;31382;50.200;8.674;2022-09-14T22:46:51;17.10;99.90
45323;DHT22;31382;50.200;8.674;2022-09-14T22:51:53;17.00;99.90
45323;DHT22;31382;50.200;8.674;2022-09-14T22:56:55;17.00;99.90
45323;DHT22;31382;50.200;8.674;2022-09-14T23:01:57;17.00;99.90
45323;DHT22;31382;50.200;8.674;2022-09-14T23:06:59;17.00;99.90
45323;DHT22;31382;50.200;8.674;2022-09-14T23:12:00;16.90;99.90
45323;DHT22;31382;50.200;8.674;2022-09-14T23:17:02;17.00;99.90
45323;DHT22;31382;50.200;8.674;2022-09-14T23:22:04;17.00;99.90
45323;DHT22;31382;50.200;8.674;2022-09-14T23:27:06;17.00;99.90
45323;DHT22;31382;50.200;8.674;2022-09-14T23:32:07;17.00;99.90
45323;DHT22;31382;50.200;8.674;2022-09-14T23:37:09;17.00;99.90
45323;DHT22;31382;50.200;8.674;2022-09-14T23:42:11;16.90;99.90
45323;DHT22;31382;50.200;8.674;2022-09-14T23:47:13;16.90;99.90
45323;DHT22;31382;50.200;8.674;2022-09-14T23:52:14;17.00;99.90
45323;DHT22;31382;50.200;8.674;2022-09-14T23:57:16;17.00;99.90
